sensor_id;sensor_type;location;lat;lon;timestamp;pressure;altitude;pressure_sealevel;temperature;humidity
59650;BME280;46162;57.568;25.814;2023-07-30T00:00:48;99998.13;;;9.75;100.00
59650;BME280;46162;57.568;25.814;2023-07-30T00:03:17;99997.41;;;9.64;100.00
59650;BME280;46162;57.568;25.814;2023-07-30T00:05:53;100006.72;;;9.44;100.00
59650;BME280;46162;57.568;25.814;2023-07-30T00:08:22;100004.72;;;9.46;100.00
59650;BME280;46162;57.568;25.814;2023-07-30T00:10:51;99998.13;;;9.32;100.00
59650;BME280;46162;57.568;25.814;2023-07-30T00:13:19;100006.19;;;9.32;100.00
59650;BME280;46162;57.568;25.814;2023-07-30T00:15:48;100013.84;;;9.19;100.00
59650;BME280;46162;57.568;25.814;2023-07-30T00:18:17;100010.47;;;9.17;100.00
59650;BME280;46162;57.568;25.814;2023-07-30T00:20:45;100017.84;;;9.15;100.00
59650;BME280;46162;57.568;25.814;2023-07-30T00:23:16;100021.19;;;9.35;100.00
59650;BME280;46162;57.568;25.814;2023-07-30T00:25:44;100019.59;;;9.58;100.00
59650;BME280;46162;57.568;25.814;2023-07-30T00:28:13;100018.31;;;9.79;100.00
59650;BME280;46162;57.568;25.814;2023-07-30T00:30:41;100009.28;;;9.96;100.00
59650;BME280;46162;57.568;25.814;2023-07-30T00:33:10;100009.13;;;10.06;100.00
59650;BME280;46162;57.568;25.814;2023-07-30T00:35:39;100005.19;;;9.84;100.00
59650;BME280;46162;57.568;25.814;2023-07-30T00:38:07;100002.16;;;9.79;100.00
59650;BME280;46162;57.568;25.814;2023-07-30T00:40:41;100008.19;;;9.64;100.00
59650;BME280;46162;57.568;25.814;2023-07-30T00:43:09;100005.41;;;9.48;100.00
59650;BME280;46162;57.568;25.814;2023-07-30T00:45:40;100007.63;;;9.18;100.00
59650;BME280;46162;57.568;25.814;2023-07-30T00:48:09;100007.22;;;9.05;100.00
59650;BME280;46162;57.568;25.814;2023-07-30T00:50:38;100011.19;;;8.93;100.00
59650;BME280;46162;57.568;25.814;2023-07-30T00:53:09;100007.41;;;8.86;100.00
59650;BME280;46162;57.568;25.814;2023-07-30T00:55:39;100012.72;;;8.77;100.00
59650;BME280;46162;57.568;25.814;2023-07-30T00:58:09;100021.66;;;8.60;100.00
59650;BME280;46162;57.568;25.814;2023-07-30T01:00:38;100011.91;;;8.59;100.00
59650;BME280;46162;57.568;25.814;2023-07-30T01:03:07;100009.91;;;8.61;100.00
59650;BME280;46162;57.568;25.814;2023-07-30T01:05:36;100013.91;;;8.57;100.00
59650;BME280;46162;57.568;25.814;2023-07-30T01:08:04;100008.78;;;8.46;100.00
59650;BME280;46162;57.568;25.814;2023-07-30T01:10:34;100012.47;;;8.45;100.00
59650;BME280;46162;57.568;25.814;2023-07-30T01:13:04;100008.94;;;8.44;100.00
59650;BME280;46162;57.568;25.814;2023-07-30T01:15:36;100009.41;;;8.39;100.00
59650;BME280;46162;57.568;25.814;2023-07-30T01:18:05;100007.00;;;8.36;100.00
59650;BME280;46162;57.568;25.814;2023-07-30T01:20:34;100008.47;;;8.31;100.00
59650;BME280;46162;57.568;25.814;2023-07-30T01:23:04;100013.84;;;8.31;100.00
59650;BME280;46162;57.568;25.814;2023-07-30T01:25:36;100002.06;;;8.14;100.00
59650;BME280;46162;57.568;25.814;2023-07-30T01:28:06;100007.13;;;8.17;100.00
59650;BME280;46162;57.568;25.814;2023-07-30T01:30:38;100010.41;;;8.11;100.00
59650;BME280;46162;57.568;25.814;2023-07-30T01:33:10;100015.97;;;8.09;100.00
59650;BME280;46162;57.568;25.814;2023-07-30T01:35:41;100009.38;;;8.04;100.00
59650;BME280;46162;57.568;25.814;2023-07-30T01:38:13;100013.88;;;8.03;100.00
59650;BME280;46162;57.568;25.814;2023-07-30T01:40:42;100019.09;;;8.05;100.00
59650;BME280;46162;57.568;25.814;2023-07-30T01:43:10;100016.22;;;8.16;100.00
59650;BME280;46162;57.568;25.814;2023-07-30T01:45:39;100017.06;;;8.16;100.00
59650;BME280;46162;57.568;25.814;2023-07-30T01:48:08;100011.56;;;8.08;100.00
59650;BME280;46162;57.568;25.814;2023-07-30T01:50:37;100027.19;;;8.23;100.00
59650;BME280;46162;57.568;25.814;2023-07-30T01:53:05;100025.06;;;8.26;100.00
59650;BME280;46162;57.568;25.814;2023-07-30T01:55:36;100022.66;;;8.23;100.00
59650;BME280;46162;57.568;25.814;2023-07-30T01:58:05;100027.50;;;8.19;100.00
59650;BME280;46162;57.568;25.814;2023-07-30T02:00:34;100025.88;;;8.09;100.00
59650;BME280;46162;57.568;25.814;2023-07-30T02:03:03;100019.94;;;8.05;100.00
59650;BME280;46162;57.568;25.814;2023-07-30T02:05:32;100021.09;;;8.03;100.00
59650;BME280;46162;57.568;25.814;2023-07-30T02:08:00;100021.34;;;7.91;100.00
59650;BME280;46162;57.568;25.814;2023-07-30T02:10:30;100031.06;;;7.92;100.00
59650;BME280;46162;57.568;25.814;2023-07-30T02:13:00;100031.78;;;7.94;100.00
59650;BME280;46162;57.568;25.814;2023-07-30T02:15:28;100030.28;;;7.82;100.00
59650;BME280;46162;57.568;25.814;2023-07-30T02:18:00;100038.44;;;7.90;100.00
59650;BME280;46162;57.568;25.814;2023-07-30T02:20:29;100035.66;;;7.82;100.00
59650;BME280;46162;57.568;25.814;2023-07-30T02:22:57;100038.09;;;7.75;100.00
59650;BME280;46162;57.568;25.814;2023-07-30T02:25:26;100037.97;;;7.77;100.00
59650;BME280;46162;57.568;25.814;2023-07-30T02:27:54;100043.34;;;7.77;100.00
59650;BME280;46162;57.568;25.814;2023-07-30T02:30:24;100039.31;;;7.81;100.00
59650;BME280;46162;57.568;25.814;2023-07-30T02:32:54;100036.50;;;7.83;100.00
59650;BME280;46162;57.568;25.814;2023-07-30T02:35:22;100031.81;;;7.85;100.00
59650;BME280;46162;57.568;25.814;2023-07-30T02:37:51;100037.66;;;7.80;100.00
59650;BME280;46162;57.568;25.814;2023-07-30T02:40:20;100042.44;;;7.86;100.00
59650;BME280;46162;57.568;25.814;2023-07-30T02:42:48;100043.41;;;7.85;100.00
59650;BME280;46162;57.568;25.814;2023-07-30T02:45:18;100038.69;;;7.97;100.00
59650;BME280;46162;57.568;25.814;2023-07-30T02:47:47;100036.44;;;7.92;100.00
59650;BME280;46162;57.568;25.814;2023-07-30T02:50:16;100033.84;;;8.01;100.00
59650;BME280;46162;57.568;25.814;2023-07-30T02:52:47;100030.75;;;7.95;100.00
59650;BME280;46162;57.568;25.814;2023-07-30T02:55:15;100030.44;;;7.98;100.00
59650;BME280;46162;57.568;25.814;2023-07-30T02:57:44;100041.47;;;8.23;100.00
59650;BME280;46162;57.568;25.814;2023-07-30T03:00:13;100034.66;;;8.29;100.00
59650;BME280;46162;57.568;25.814;2023-07-30T03:02:42;100037.56;;;8.35;100.00
59650;BME280;46162;57.568;25.814;2023-07-30T03:05:13;100034.88;;;8.35;100.00
59650;BME280;46162;57.568;25.814;2023-07-30T03:07:43;100044.16;;;8.51;100.00
59650;BME280;46162;57.568;25.814;2023-07-30T03:10:12;100023.16;;;8.54;100.00
59650;BME280;46162;57.568;25.814;2023-07-30T03:12:41;100029.97;;;8.67;100.00
59650;BME280;46162;57.568;25.814;2023-07-30T03:15:10;100026.34;;;8.76;100.00
59650;BME280;46162;57.568;25.814;2023-07-30T03:17:38;100039.78;;;8.94;100.00
59650;BME280;46162;57.568;25.814;2023-07-30T03:20:08;100032.91;;;8.99;100.00
59650;BME280;46162;57.568;25.814;2023-07-30T03:22:39;100038.16;;;9.01;100.00
59650;BME280;46162;57.568;25.814;2023-07-30T03:25:08;100048.81;;;9.11;100.00
59650;BME280;46162;57.568;25.814;2023-07-30T03:27:37;100044.63;;;9.16;100.00
59650;BME280;46162;57.568;25.814;2023-07-30T03:30:06;100045.69;;;9.23;100.00
59650;BME280;46162;57.568;25.814;2023-07-30T03:32:36;100042.25;;;9.39;100.00
59650;BME280;46162;57.568;25.814;2023-07-30T03:35:05;100045.34;;;9.53;100.00
59650;BME280;46162;57.568;25.814;2023-07-30T03:37:34;100039.31;;;9.59;100.00
59650;BME280;46162;57.568;25.814;2023-07-30T03:40:07;100047.28;;;9.68;100.00
59650;BME280;46162;57.568;25.814;2023-07-30T03:42:36;100042.91;;;9.76;100.00
59650;BME280;46162;57.568;25.814;2023-07-30T03:45:06;100047.34;;;9.85;100.00
59650;BME280;46162;57.568;25.814;2023-07-30T03:47:34;100033.88;;;9.93;100.00
59650;BME280;46162;57.568;25.814;2023-07-30T03:50:03;100042.03;;;10.09;100.00
59650;BME280;46162;57.568;25.814;2023-07-30T03:52:33;100032.78;;;10.12;100.00
59650;BME280;46162;57.568;25.814;2023-07-30T03:55:03;100038.31;;;10.19;100.00
59650;BME280;46162;57.568;25.814;2023-07-30T03:57:33;100033.97;;;10.26;100.00
59650;BME280;46162;57.568;25.814;2023-07-30T04:00:03;100035.34;;;10.30;100.00
59650;BME280;46162;57.568;25.814;2023-07-30T04:02:40;100032.34;;;10.41;100.00
59650;BME280;46162;57.568;25.814;2023-07-30T04:05:09;100030.69;;;10.48;100.00
59650;BME280;46162;57.568;25.814;2023-07-30T04:07:37;100023.56;;;10.55;100.00
59650;BME280;46162;57.568;25.814;2023-07-30T04:10:07;100030.31;;;10.68;100.00
59650;BME280;46162;57.568;25.814;2023-07-30T04:12:38;100017.19;;;10.81;100.00
59650;BME280;46162;57.568;25.814;2023-07-30T04:15:07;100017.69;;;10.93;100.00
59650;BME280;46162;57.568;25.814;2023-07-30T04:17:36;100010.91;;;10.97;100.00
59650;BME280;46162;57.568;25.814;2023-07-30T04:20:06;100018.81;;;11.07;100.00
59650;BME280;46162;57.568;25.814;2023-07-30T04:22:36;100016.09;;;11.15;100.00
59650;BME280;46162;57.568;25.814;2023-07-30T04:25:05;100013.22;;;11.33;100.00
59650;BME280;46162;57.568;25.814;2023-07-30T04:27:34;100009.22;;;11.60;100.00
59650;BME280;46162;57.568;25.814;2023-07-30T04:30:06;100006.53;;;11.60;100.00
59650;BME280;46162;57.568;25.814;2023-07-30T04:32:35;100009.19;;;11.68;100.00
59650;BME280;46162;57.568;25.814;2023-07-30T04:35:04;100016.19;;;11.86;100.00
59650;BME280;46162;57.568;25.814;2023-07-30T04:37:33;100008.44;;;11.91;100.00
59650;BME280;46162;57.568;25.814;2023-07-30T04:40:02;100011.84;;;12.16;100.00
59650;BME280;46162;57.568;25.814;2023-07-30T04:42:32;100005.22;;;12.18;100.00
59650;BME280;46162;57.568;25.814;2023-07-30T04:45:02;100005.81;;;12.29;100.00
59650;BME280;46162;57.568;25.814;2023-07-30T04:47:34;100011.38;;;12.35;100.00
59650;BME280;46162;57.568;25.814;2023-07-30T04:50:04;100016.19;;;12.48;100.00
59650;BME280;46162;57.568;25.814;2023-07-30T04:52:33;100011.66;;;12.63;100.00
59650;BME280;46162;57.568;25.814;2023-07-30T04:55:01;100007.84;;;12.73;100.00
59650;BME280;46162;57.568;25.814;2023-07-30T04:57:30;100006.63;;;12.98;100.00
59650;BME280;46162;57.568;25.814;2023-07-30T04:59:58;100004.94;;;12.97;100.00
59650;BME280;46162;57.568;25.814;2023-07-30T05:02:28;100003.53;;;13.01;100.00
59650;BME280;46162;57.568;25.814;2023-07-30T05:04:58;100002.72;;;13.16;100.00
59650;BME280;46162;57.568;25.814;2023-07-30T05:07:27;99995.84;;;13.28;100.00
59650;BME280;46162;57.568;25.814;2023-07-30T05:09:55;99987.72;;;13.43;100.00
59650;BME280;46162;57.568;25.814;2023-07-30T05:12:24;99989.94;;;13.54;100.00
59650;BME280;46162;57.568;25.814;2023-07-30T05:14:53;99990.69;;;13.63;100.00
59650;BME280;46162;57.568;25.814;2023-07-30T05:17:21;99997.38;;;13.82;100.00
59650;BME280;46162;57.568;25.814;2023-07-30T05:19:50;99994.75;;;13.88;100.00
59650;BME280;46162;57.568;25.814;2023-07-30T05:22:20;99989.38;;;14.10;100.00
59650;BME280;46162;57.568;25.814;2023-07-30T05:24:49;99979.81;;;14.14;100.00
59650;BME280;46162;57.568;25.814;2023-07-30T05:27:18;99989.28;;;14.39;100.00
59650;BME280;46162;57.568;25.814;2023-07-30T05:29:46;99981.75;;;14.56;100.00
59650;BME280;46162;57.568;25.814;2023-07-30T05:32:15;99987.63;;;14.60;100.00
59650;BME280;46162;57.568;25.814;2023-07-30T05:34:44;99982.00;;;14.61;100.00
59650;BME280;46162;57.568;25.814;2023-07-30T05:37:12;99979.72;;;14.65;100.00
59650;BME280;46162;57.568;25.814;2023-07-30T05:39:43;99978.94;;;14.71;100.00
59650;BME280;46162;57.568;25.814;2023-07-30T05:42:11;99984.41;;;14.78;100.00
59650;BME280;46162;57.568;25.814;2023-07-30T05:44:40;99981.50;;;15.08;100.00
59650;BME280;46162;57.568;25.814;2023-07-30T05:47:09;99975.13;;;15.22;100.00
59650;BME280;46162;57.568;25.814;2023-07-30T05:49:37;99975.53;;;15.25;100.00
59650;BME280;46162;57.568;25.814;2023-07-30T05:52:06;99973.34;;;15.36;100.00
59650;BME280;46162;57.568;25.814;2023-07-30T05:54:35;99974.69;;;15.53;100.00
59650;BME280;46162;57.568;25.814;2023-07-30T05:57:05;99972.56;;;15.55;100.00
59650;BME280;46162;57.568;25.814;2023-07-30T05:59:34;99975.34;;;15.62;100.00
59650;BME280;46162;57.568;25.814;2023-07-30T06:02:03;99971.25;;;15.73;100.00
59650;BME280;46162;57.568;25.814;2023-07-30T06:04:32;99965.19;;;15.84;100.00
59650;BME280;46162;57.568;25.814;2023-07-30T06:07:02;99964.41;;;15.90;100.00
59650;BME280;46162;57.568;25.814;2023-07-30T06:09:33;99969.00;;;15.96;100.00
59650;BME280;46162;57.568;25.814;2023-07-30T06:12:02;99958.16;;;16.03;100.00
59650;BME280;46162;57.568;25.814;2023-07-30T06:14:32;99964.47;;;16.10;100.00
59650;BME280;46162;57.568;25.814;2023-07-30T06:17:01;99961.94;;;16.22;100.00
59650;BME280;46162;57.568;25.814;2023-07-30T06:19:30;99962.38;;;16.25;100.00
59650;BME280;46162;57.568;25.814;2023-07-30T06:22:00;99967.84;;;16.39;100.00
59650;BME280;46162;57.568;25.814;2023-07-30T06:24:29;99969.13;;;16.49;100.00
59650;BME280;46162;57.568;25.814;2023-07-30T06:27:17;99970.59;;;16.65;100.00
59650;BME280;46162;57.568;25.814;2023-07-30T06:29:47;99973.13;;;16.73;100.00
59650;BME280;46162;57.568;25.814;2023-07-30T06:32:16;99977.53;;;16.81;100.00
59650;BME280;46162;57.568;25.814;2023-07-30T06:34:45;99970.63;;;16.98;100.00
59650;BME280;46162;57.568;25.814;2023-07-30T06:37:13;99977.53;;;17.14;100.00
59650;BME280;46162;57.568;25.814;2023-07-30T06:39:42;99972.47;;;17.25;100.00
59650;BME280;46162;57.568;25.814;2023-07-30T06:42:11;99970.38;;;17.33;100.00
59650;BME280;46162;57.568;25.814;2023-07-30T06:44:39;99970.75;;;17.44;100.00
59650;BME280;46162;57.568;25.814;2023-07-30T06:47:11;99965.88;;;17.52;100.00
59650;BME280;46162;57.568;25.814;2023-07-30T06:49:42;99966.91;;;17.65;100.00
59650;BME280;46162;57.568;25.814;2023-07-30T06:52:11;99968.09;;;17.89;100.00
59650;BME280;46162;57.568;25.814;2023-07-30T06:54:39;99969.84;;;18.15;100.00
59650;BME280;46162;57.568;25.814;2023-07-30T06:57:08;99967.47;;;18.25;100.00
59650;BME280;46162;57.568;25.814;2023-07-30T06:59:37;99964.03;;;18.36;100.00
59650;BME280;46162;57.568;25.814;2023-07-30T07:02:05;99965.63;;;18.51;100.00
59650;BME280;46162;57.568;25.814;2023-07-30T07:04:36;99974.16;;;18.61;100.00
59650;BME280;46162;57.568;25.814;2023-07-30T07:07:04;99968.81;;;18.73;100.00
59650;BME280;46162;57.568;25.814;2023-07-30T07:09:35;99975.31;;;18.78;100.00
59650;BME280;46162;57.568;25.814;2023-07-30T07:12:04;99974.66;;;18.83;100.00
59650;BME280;46162;57.568;25.814;2023-07-30T07:14:33;99966.94;;;18.98;100.00
59650;BME280;46162;57.568;25.814;2023-07-30T07:17:02;99972.09;;;19.06;100.00
59650;BME280;46162;57.568;25.814;2023-07-30T07:19:31;99968.94;;;19.09;100.00
59650;BME280;46162;57.568;25.814;2023-07-30T07:22:05;99968.03;;;19.16;100.00
59650;BME280;46162;57.568;25.814;2023-07-30T07:24:34;99965.91;;;19.18;100.00
59650;BME280;46162;57.568;25.814;2023-07-30T07:27:03;99966.06;;;19.23;100.00
59650;BME280;46162;57.568;25.814;2023-07-30T07:29:32;99966.09;;;19.41;100.00
59650;BME280;46162;57.568;25.814;2023-07-30T07:32:01;99958.31;;;19.38;100.00
59650;BME280;46162;57.568;25.814;2023-07-30T07:34:29;99963.34;;;19.41;100.00
59650;BME280;46162;57.568;25.814;2023-07-30T07:36:58;99958.72;;;19.42;100.00
59650;BME280;46162;57.568;25.814;2023-07-30T07:39:28;99963.41;;;19.53;100.00
59650;BME280;46162;57.568;25.814;2023-07-30T07:41:57;99964.41;;;19.40;100.00
59650;BME280;46162;57.568;25.814;2023-07-30T07:44:26;99959.31;;;19.44;100.00
59650;BME280;46162;57.568;25.814;2023-07-30T07:46:54;99958.19;;;19.51;100.00
59650;BME280;46162;57.568;25.814;2023-07-30T07:49:23;99960.63;;;19.41;100.00
59650;BME280;46162;57.568;25.814;2023-07-30T07:51:52;99956.81;;;19.42;100.00
59650;BME280;46162;57.568;25.814;2023-07-30T07:54:20;99947.91;;;19.47;100.00
59650;BME280;46162;57.568;25.814;2023-07-30T07:56:50;99944.66;;;19.57;100.00
59650;BME280;46162;57.568;25.814;2023-07-30T07:59:21;99953.53;;;19.70;100.00
59650;BME280;46162;57.568;25.814;2023-07-30T08:01:50;99949.69;;;20.08;100.00
59650;BME280;46162;57.568;25.814;2023-07-30T08:04:18;99949.03;;;19.94;100.00
59650;BME280;46162;57.568;25.814;2023-07-30T08:06:48;99941.59;;;19.83;100.00
59650;BME280;46162;57.568;25.814;2023-07-30T08:09:17;99946.00;;;19.84;100.00
59650;BME280;46162;57.568;25.814;2023-07-30T08:11:45;99939.44;;;19.85;100.00
59650;BME280;46162;57.568;25.814;2023-07-30T08:14:15;99954.22;;;19.84;100.00
59650;BME280;46162;57.568;25.814;2023-07-30T08:16:46;99941.44;;;19.78;100.00
59650;BME280;46162;57.568;25.814;2023-07-30T08:19:15;99939.16;;;19.93;100.00
59650;BME280;46162;57.568;25.814;2023-07-30T08:21:45;99943.69;;;20.00;100.00
59650;BME280;46162;57.568;25.814;2023-07-30T08:24:14;99936.06;;;20.02;100.00
59650;BME280;46162;57.568;25.814;2023-07-30T08:26:42;99943.66;;;20.18;100.00
59650;BME280;46162;57.568;25.814;2023-07-30T08:29:14;99941.34;;;20.15;100.00
59650;BME280;46162;57.568;25.814;2023-07-30T08:31:44;99937.84;;;20.26;100.00
59650;BME280;46162;57.568;25.814;2023-07-30T08:34:13;99950.28;;;20.40;100.00
59650;BME280;46162;57.568;25.814;2023-07-30T08:36:42;99941.91;;;20.35;100.00
59650;BME280;46162;57.568;25.814;2023-07-30T08:39:10;99943.94;;;20.28;100.00
59650;BME280;46162;57.568;25.814;2023-07-30T08:41:39;99945.84;;;20.39;100.00
59650;BME280;46162;57.568;25.814;2023-07-30T08:44:09;99944.53;;;20.42;100.00
59650;BME280;46162;57.568;25.814;2023-07-30T08:46:38;99936.34;;;20.54;100.00
59650;BME280;46162;57.568;25.814;2023-07-30T08:49:08;99936.50;;;20.59;100.00
59650;BME280;46162;57.568;25.814;2023-07-30T08:51:37;99931.13;;;20.64;100.00
59650;BME280;46162;57.568;25.814;2023-07-30T08:54:09;99933.31;;;20.74;100.00
59650;BME280;46162;57.568;25.814;2023-07-30T08:56:38;99948.81;;;20.92;100.00
59650;BME280;46162;57.568;25.814;2023-07-30T08:59:09;99944.53;;;20.96;100.00
59650;BME280;46162;57.568;25.814;2023-07-30T09:01:39;99939.53;;;20.93;100.00
59650;BME280;46162;57.568;25.814;2023-07-30T09:04:14;99941.06;;;20.89;100.00
59650;BME280;46162;57.568;25.814;2023-07-30T09:06:48;99952.03;;;20.89;100.00
59650;BME280;46162;57.568;25.814;2023-07-30T09:09:21;99936.41;;;21.01;100.00
59650;BME280;46162;57.568;25.814;2023-07-30T09:11:51;99945.25;;;21.03;100.00
59650;BME280;46162;57.568;25.814;2023-07-30T09:14:22;99932.47;;;21.09;100.00
59650;BME280;46162;57.568;25.814;2023-07-30T09:16:56;99936.19;;;21.14;100.00
59650;BME280;46162;57.568;25.814;2023-07-30T09:19:26;99939.28;;;21.18;100.00
59650;BME280;46162;57.568;25.814;2023-07-30T09:21:55;99945.38;;;21.20;100.00
59650;BME280;46162;57.568;25.814;2023-07-30T09:24:23;99940.94;;;21.31;100.00
59650;BME280;46162;57.568;25.814;2023-07-30T09:26:54;99940.22;;;21.47;100.00
59650;BME280;46162;57.568;25.814;2023-07-30T09:29:24;99943.31;;;21.39;100.00
59650;BME280;46162;57.568;25.814;2023-07-30T09:31:53;99939.88;;;21.32;100.00
59650;BME280;46162;57.568;25.814;2023-07-30T09:34:23;99934.50;;;21.37;100.00
59650;BME280;46162;57.568;25.814;2023-07-30T09:36:54;99933.53;;;21.43;100.00
59650;BME280;46162;57.568;25.814;2023-07-30T09:39:24;99936.59;;;21.58;100.00
59650;BME280;46162;57.568;25.814;2023-07-30T09:42:00;99937.91;;;21.67;100.00
59650;BME280;46162;57.568;25.814;2023-07-30T09:44:32;99935.72;;;21.81;100.00
59650;BME280;46162;57.568;25.814;2023-07-30T09:47:01;99932.13;;;21.81;100.00
59650;BME280;46162;57.568;25.814;2023-07-30T09:49:32;99932.94;;;22.22;100.00
59650;BME280;46162;57.568;25.814;2023-07-30T09:52:02;99937.22;;;22.46;100.00
59650;BME280;46162;57.568;25.814;2023-07-30T09:54:31;99936.06;;;22.76;100.00
59650;BME280;46162;57.568;25.814;2023-07-30T09:57:01;99941.06;;;22.62;100.00
59650;BME280;46162;57.568;25.814;2023-07-30T09:59:31;99934.22;;;22.65;100.00
59650;BME280;46162;57.568;25.814;2023-07-30T10:02:00;99940.75;;;22.59;100.00
59650;BME280;46162;57.568;25.814;2023-07-30T10:04:31;99932.63;;;22.52;100.00
59650;BME280;46162;57.568;25.814;2023-07-30T10:07:06;99943.88;;;22.33;100.00
59650;BME280;46162;57.568;25.814;2023-07-30T10:09:39;99944.88;;;22.44;100.00
59650;BME280;46162;57.568;25.814;2023-07-30T10:12:12;99942.78;;;22.35;100.00
59650;BME280;46162;57.568;25.814;2023-07-30T10:14:42;99934.59;;;22.23;100.00
59650;BME280;46162;57.568;25.814;2023-07-30T10:17:11;99938.84;;;22.02;100.00
59650;BME280;46162;57.568;25.814;2023-07-30T10:19:40;99936.94;;;22.02;100.00
59650;BME280;46162;57.568;25.814;2023-07-30T10:22:22;99937.47;;;21.87;100.00
59650;BME280;46162;57.568;25.814;2023-07-30T10:24:56;99934.72;;;21.87;100.00
59650;BME280;46162;57.568;25.814;2023-07-30T10:27:27;99936.13;;;22.02;100.00
59650;BME280;46162;57.568;25.814;2023-07-30T10:30:09;99937.53;;;22.04;100.00
59650;BME280;46162;57.568;25.814;2023-07-30T10:32:39;99939.28;;;22.22;100.00
59650;BME280;46162;57.568;25.814;2023-07-30T10:35:07;99935.88;;;22.32;100.00
59650;BME280;46162;57.568;25.814;2023-07-30T10:37:45;99937.47;;;22.28;100.00
59650;BME280;46162;57.568;25.814;2023-07-30T10:40:17;99943.53;;;22.30;100.00
59650;BME280;46162;57.568;25.814;2023-07-30T10:42:46;99938.03;;;22.30;100.00
59650;BME280;46162;57.568;25.814;2023-07-30T10:45:16;99940.22;;;22.45;100.00
59650;BME280;46162;57.568;25.814;2023-07-30T10:47:47;99930.72;;;22.69;100.00
59650;BME280;46162;57.568;25.814;2023-07-30T10:50:22;99941.97;;;22.85;100.00
59650;BME280;46162;57.568;25.814;2023-07-30T10:52:52;99937.81;;;23.16;100.00
59650;BME280;46162;57.568;25.814;2023-07-30T10:55:20;99934.69;;;23.29;100.00
59650;BME280;46162;57.568;25.814;2023-07-30T10:57:50;99932.44;;;23.26;100.00
59650;BME280;46162;57.568;25.814;2023-07-30T11:00:19;99935.16;;;23.43;100.00
59650;BME280;46162;57.568;25.814;2023-07-30T11:02:53;99930.59;;;23.54;100.00
59650;BME280;46162;57.568;25.814;2023-07-30T11:05:22;99937.09;;;23.65;100.00
59650;BME280;46162;57.568;25.814;2023-07-30T11:07:53;99926.03;;;23.81;100.00
59650;BME280;46162;57.568;25.814;2023-07-30T11:10:22;99927.28;;;23.30;100.00
59650;BME280;46162;57.568;25.814;2023-07-30T11:12:50;99937.59;;;23.01;100.00
59650;BME280;46162;57.568;25.814;2023-07-30T11:15:19;99936.91;;;22.93;100.00
59650;BME280;46162;57.568;25.814;2023-07-30T11:17:48;99935.75;;;22.72;100.00
59650;BME280;46162;57.568;25.814;2023-07-30T11:20:23;99939.56;;;22.54;100.00
59650;BME280;46162;57.568;25.814;2023-07-30T11:22:55;99940.72;;;22.42;100.00
59650;BME280;46162;57.568;25.814;2023-07-30T11:25:24;99942.56;;;22.36;100.00
59650;BME280;46162;57.568;25.814;2023-07-30T11:27:53;99943.53;;;22.30;100.00
59650;BME280;46162;57.568;25.814;2023-07-30T11:30:22;99948.13;;;22.41;100.00
59650;BME280;46162;57.568;25.814;2023-07-30T11:32:51;99947.31;;;22.41;100.00
59650;BME280;46162;57.568;25.814;2023-07-30T11:35:20;99947.91;;;22.43;100.00
59650;BME280;46162;57.568;25.814;2023-07-30T11:37:48;99947.47;;;22.34;100.00
59650;BME280;46162;57.568;25.814;2023-07-30T11:40:20;99949.53;;;22.27;100.00
59650;BME280;46162;57.568;25.814;2023-07-30T11:42:49;99945.72;;;22.45;100.00
59650;BME280;46162;57.568;25.814;2023-07-30T11:45:19;99939.06;;;22.41;100.00
59650;BME280;46162;57.568;25.814;2023-07-30T11:47:48;99943.28;;;22.31;100.00
59650;BME280;46162;57.568;25.814;2023-07-30T11:50:17;99945.72;;;22.28;100.00
59650;BME280;46162;57.568;25.814;2023-07-30T11:52:53;99943.19;;;22.26;100.00
59650;BME280;46162;57.568;25.814;2023-07-30T11:55:37;99938.91;;;22.19;100.00
59650;BME280;46162;57.568;25.814;2023-07-30T11:58:06;99938.63;;;22.32;100.00
59650;BME280;46162;57.568;25.814;2023-07-30T12:00:36;99944.72;;;22.34;100.00
59650;BME280;46162;57.568;25.814;2023-07-30T12:03:06;99938.13;;;22.35;100.00
59650;BME280;46162;57.568;25.814;2023-07-30T12:05:36;99942.47;;;22.31;100.00
59650;BME280;46162;57.568;25.814;2023-07-30T12:08:07;99942.09;;;22.27;100.00
59650;BME280;46162;57.568;25.814;2023-07-30T12:10:42;99948.53;;;22.04;100.00
59650;BME280;46162;57.568;25.814;2023-07-30T12:13:15;99943.38;;;21.79;100.00
59650;BME280;46162;57.568;25.814;2023-07-30T12:15:51;99943.59;;;21.78;100.00
59650;BME280;46162;57.568;25.814;2023-07-30T12:18:25;99950.94;;;21.60;100.00
59650;BME280;46162;57.568;25.814;2023-07-30T12:20:54;99950.94;;;21.60;100.00
59650;BME280;46162;57.568;25.814;2023-07-30T12:23:25;99953.78;;;21.65;100.00
59650;BME280;46162;57.568;25.814;2023-07-30T12:25:55;99957.03;;;21.62;100.00
59650;BME280;46162;57.568;25.814;2023-07-30T12:28:24;99964.06;;;21.70;100.00
59650;BME280;46162;57.568;25.814;2023-07-30T12:30:52;99961.59;;;21.45;100.00
59650;BME280;46162;57.568;25.814;2023-07-30T12:33:21;99962.41;;;21.57;100.00
59650;BME280;46162;57.568;25.814;2023-07-30T12:35:49;99971.75;;;21.44;100.00
59650;BME280;46162;57.568;25.814;2023-07-30T12:38:18;99971.38;;;21.17;100.00
59650;BME280;46162;57.568;25.814;2023-07-30T12:40:47;99970.06;;;21.20;100.00
59650;BME280;46162;57.568;25.814;2023-07-30T12:43:17;99978.31;;;21.08;100.00
59650;BME280;46162;57.568;25.814;2023-07-30T12:45:48;99989.50;;;21.18;100.00
59650;BME280;46162;57.568;25.814;2023-07-30T12:48:17;99980.19;;;21.31;100.00
59650;BME280;46162;57.568;25.814;2023-07-30T12:50:45;99975.69;;;21.25;100.00